sensor_id;sensor_type;location;lat;lon;timestamp;temperature;humidity
17597;DHT22;8917;50.942;6.946;2023-12-20T00:00:35;9.90;99.90
17597;DHT22;8917;50.942;6.946;2023-12-20T00:03:03;9.90;99.90
17597;DHT22;8917;50.942;6.946;2023-12-20T00:05:30;9.90;99.90
17597;DHT22;8917;50.942;6.946;2023-12-20T00:07:59;10.00;99.90
17597;DHT22;8917;50.942;6.946;2023-12-20T00:10:26;10.10;99.90
17597;DHT22;8917;50.942;6.946;2023-12-20T00:12:53;10.10;99.90
17597;DHT22;8917;50.942;6.946;2023-12-20T00:15:19;10.10;99.90
17597;DHT22;8917;50.942;6.946;2023-12-20T00:17:46;10.10;99.90
17597;DHT22;8917;50.942;6.946;2023-12-20T00:20:13;10.00;99.90
17597;DHT22;8917;50.942;6.946;2023-12-20T00:22:40;10.00;99.90
17597;DHT22;8917;50.942;6.946;2023-12-20T00:25:08;10.10;99.90
17597;DHT22;8917;50.942;6.946;2023-12-20T00:27:35;10.20;99.90
17597;DHT22;8917;50.942;6.946;2023-12-20T00:30:02;10.20;99.90
17597;DHT22;8917;50.942;6.946;2023-12-20T00:32:29;10.30;99.90
17597;DHT22;8917;50.942;6.946;2023-12-20T00:34:56;10.20;99.90
17597;DHT22;8917;50.942;6.946;2023-12-20T00:37:23;10.30;99.90
17597;DHT22;8917;50.942;6.946;2023-12-20T00:39:50;10.30;99.90
17597;DHT22;8917;50.942;6.946;2023-12-20T00:42:18;10.40;99.90
17597;DHT22;8917;50.942;6.946;2023-12-20T00:44:45;10.40;99.90
17597;DHT22;8917;50.942;6.946;2023-12-20T00:47:12;10.30;99.90
17597;DHT22;8917;50.942;6.946;2023-12-20T00:49:39;10.20;99.90
17597;DHT22;8917;50.942;6.946;2023-12-20T00:52:06;10.20;99.90
17597;DHT22;8917;50.942;6.946;2023-12-20T00:54:33;10.30;99.90
17597;DHT22;8917;50.942;6.946;2023-12-20T00:57:00;10.20;99.90
17597;DHT22;8917;50.942;6.946;2023-12-20T00:59:28;10.10;99.90
17597;DHT22;8917;50.942;6.946;2023-12-20T01:01:55;10.30;99.90
17597;DHT22;8917;50.942;6.946;2023-12-20T01:04:22;10.30;99.90
17597;DHT22;8917;50.942;6.946;2023-12-20T01:06:49;10.40;99.90
17597;DHT22;8917;50.942;6.946;2023-12-20T01:09:16;10.30;99.90
17597;DHT22;8917;50.942;6.946;2023-12-20T01:11:44;10.30;99.90
17597;DHT22;8917;50.942;6.946;2023-12-20T01:14:11;10.30;99.90
17597;DHT22;8917;50.942;6.946;2023-12-20T01:16:40;10.20;99.90
17597;DHT22;8917;50.942;6.946;2023-12-20T01:19:06;10.10;99.90
17597;DHT22;8917;50.942;6.946;2023-12-20T01:21:34;10.00;99.90
17597;DHT22;8917;50.942;6.946;2023-12-20T01:24:00;10.10;99.90
17597;DHT22;8917;50.942;6.946;2023-12-20T01:26:27;10.10;99.90
17597;DHT22;8917;50.942;6.946;2023-12-20T01:28:54;10.00;99.90
17597;DHT22;8917;50.942;6.946;2023-12-20T01:31:21;9.90;99.90
17597;DHT22;8917;50.942;6.946;2023-12-20T01:33:50;9.90;99.90
17597;DHT22;8917;50.942;6.946;2023-12-20T01:36:17;10.00;99.90
17597;DHT22;8917;50.942;6.946;2023-12-20T01:38:43;10.10;99.90
17597;DHT22;8917;50.942;6.946;2023-12-20T01:41:10;10.20;99.90
17597;DHT22;8917;50.942;6.946;2023-12-20T01:43:37;10.10;99.90
17597;DHT22;8917;50.942;6.946;2023-12-20T01:46:04;10.20;99.90
17597;DHT22;8917;50.942;6.946;2023-12-20T01:48:32;10.10;99.90
17597;DHT22;8917;50.942;6.946;2023-12-20T01:51:00;10.20;99.90
17597;DHT22;8917;50.942;6.946;2023-12-20T01:53:29;10.20;99.90
17597;DHT22;8917;50.942;6.946;2023-12-20T01:55:58;10.20;99.90
17597;DHT22;8917;50.942;6.946;2023-12-20T01:58:26;10.30;99.90
17597;DHT22;8917;50.942;6.946;2023-12-20T02:00:53;10.20;99.90
17597;DHT22;8917;50.942;6.946;2023-12-20T02:03:21;10.10;99.90
17597;DHT22;8917;50.942;6.946;2023-12-20T02:05:48;10.10;99.90
17597;DHT22;8917;50.942;6.946;2023-12-20T02:08:16;10.00;99.90
17597;DHT22;8917;50.942;6.946;2023-12-20T02:10:43;10.00;99.90
17597;DHT22;8917;50.942;6.946;2023-12-20T02:13:10;9.90;99.90
17597;DHT22;8917;50.942;6.946;2023-12-20T02:15:37;9.80;99.90
17597;DHT22;8917;50.942;6.946;2023-12-20T02:18:04;9.70;99.90
17597;DHT22;8917;50.942;6.946;2023-12-20T02:20:31;9.60;99.90
17597;DHT22;8917;50.942;6.946;2023-12-20T02:22:59;9.60;99.90
17597;DHT22;8917;50.942;6.946;2023-12-20T02:25:26;9.50;99.90
17597;DHT22;8917;50.942;6.946;2023-12-20T02:27:53;9.60;99.90
17597;DHT22;8917;50.942;6.946;2023-12-20T02:30:21;9.70;99.90
17597;DHT22;8917;50.942;6.946;2023-12-20T02:32:48;9.70;99.90
17597;DHT22;8917;50.942;6.946;2023-12-20T02:35:15;9.80;99.90
17597;DHT22;8917;50.942;6.946;2023-12-20T02:37:42;9.80;99.90
17597;DHT22;8917;50.942;6.946;2023-12-20T02:40:11;9.70;99.90
17597;DHT22;8917;50.942;6.946;2023-12-20T02:42:38;9.80;99.90
17597;DHT22;8917;50.942;6.946;2023-12-20T02:45:06;9.70;99.90
17597;DHT22;8917;50.942;6.946;2023-12-20T02:47:33;9.70;99.90
17597;DHT22;8917;50.942;6.946;2023-12-20T02:49:59;9.70;99.90
17597;DHT22;8917;50.942;6.946;2023-12-20T02:52:28;9.70;99.90
17597;DHT22;8917;50.942;6.946;2023-12-20T02:54:55;9.50;99.90
17597;DHT22;8917;50.942;6.946;2023-12-20T02:57:23;9.20;99.90
17597;DHT22;8917;50.942;6.946;2023-12-20T02:59:50;9.40;99.90
17597;DHT22;8917;50.942;6.946;2023-12-20T03:02:17;9.50;99.90
17597;DHT22;8917;50.942;6.946;2023-12-20T03:04:44;9.60;99.90
17597;DHT22;8917;50.942;6.946;2023-12-20T03:07:11;9.70;99.90
17597;DHT22;8917;50.942;6.946;2023-12-20T03:09:38;9.70;99.90
17597;DHT22;8917;50.942;6.946;2023-12-20T03:12:05;9.70;99.90
17597;DHT22;8917;50.942;6.946;2023-12-20T03:14:34;9.70;99.90
17597;DHT22;8917;50.942;6.946;2023-12-20T03:17:00;9.70;99.90
17597;DHT22;8917;50.942;6.946;2023-12-20T03:19:27;9.80;99.90
17597;DHT22;8917;50.942;6.946;2023-12-20T03:21:54;9.50;99.90
17597;DHT22;8917;50.942;6.946;2023-12-20T03:24:21;9.20;99.90
17597;DHT22;8917;50.942;6.946;2023-12-20T03:26:48;9.40;99.90
17597;DHT22;8917;50.942;6.946;2023-12-20T03:29:15;9.40;99.90
17597;DHT22;8917;50.942;6.946;2023-12-20T03:31:43;9.20;99.90
17597;DHT22;8917;50.942;6.946;2023-12-20T03:34:11;9.30;99.90
17597;DHT22;8917;50.942;6.946;2023-12-20T03:36:38;9.30;99.90
17597;DHT22;8917;50.942;6.946;2023-12-20T03:39:05;9.30;99.90
17597;DHT22;8917;50.942;6.946;2023-12-20T03:41:32;9.40;99.90
17597;DHT22;8917;50.942;6.946;2023-12-20T03:43:59;9.20;99.90
17597;DHT22;8917;50.942;6.946;2023-12-20T03:46:26;9.40;99.90
17597;DHT22;8917;50.942;6.946;2023-12-20T03:48:54;9.50;99.90
17597;DHT22;8917;50.942;6.946;2023-12-20T03:51:21;9.20;99.90
17597;DHT22;8917;50.942;6.946;2023-12-20T03:53:48;9.30;99.90
17597;DHT22;8917;50.942;6.946;2023-12-20T03:56:15;9.40;99.90
17597;DHT22;8917;50.942;6.946;2023-12-20T03:58:42;9.50;99.90
17597;DHT22;8917;50.942;6.946;2023-12-20T04:01:09;9.60;99.90
17597;DHT22;8917;50.942;6.946;2023-12-20T04:03:38;9.60;99.90
17597;DHT22;8917;50.942;6.946;2023-12-20T04:06:07;9.70;99.90
17597;DHT22;8917;50.942;6.946;2023-12-20T04:08:34;9.60;99.90
17597;DHT22;8917;50.942;6.946;2023-12-20T04:11:01;9.70;99.90
17597;DHT22;8917;50.942;6.946;2023-12-20T04:13:28;9.40;99.90
17597;DHT22;8917;50.942;6.946;2023-12-20T04:15:55;9.30;99.90
17597;DHT22;8917;50.942;6.946;2023-12-20T04:18:21;9.30;99.90
17597;DHT22;8917;50.942;6.946;2023-12-20T04:20:48;9.40;99.90
17597;DHT22;8917;50.942;6.946;2023-12-20T04:23:18;9.50;99.90
17597;DHT22;8917;50.942;6.946;2023-12-20T04:25:46;9.40;99.90
17597;DHT22;8917;50.942;6.946;2023-12-20T04:28:13;9.50;99.90
17597;DHT22;8917;50.942;6.946;2023-12-20T04:30:40;9.60;99.90
17597;DHT22;8917;50.942;6.946;2023-12-20T04:33:07;9.60;99.90
17597;DHT22;8917;50.942;6.946;2023-12-20T04:35:33;9.70;99.90
17597;DHT22;8917;50.942;6.946;2023-12-20T04:38:00;9.60;99.90
17597;DHT22;8917;50.942;6.946;2023-12-20T04:40:29;9.60;99.90
17597;DHT22;8917;50.942;6.946;2023-12-20T04:42:56;9.50;99.90
17597;DHT22;8917;50.942;6.946;2023-12-20T04:45:22;9.40;99.90
17597;DHT22;8917;50.942;6.946;2023-12-20T04:47:51;9.40;99.90
17597;DHT22;8917;50.942;6.946;2023-12-20T04:50:17;9.50;99.90
17597;DHT22;8917;50.942;6.946;2023-12-20T04:52:45;9.30;99.90
17597;DHT22;8917;50.942;6.946;2023-12-20T04:55:12;9.30;99.90
17597;DHT22;8917;50.942;6.946;2023-12-20T04:57:41;9.10;99.90
17597;DHT22;8917;50.942;6.946;2023-12-20T05:00:09;9.30;99.90
17597;DHT22;8917;50.942;6.946;2023-12-20T05:02:36;9.30;99.90
17597;DHT22;8917;50.942;6.946;2023-12-20T05:05:03;9.40;99.90
17597;DHT22;8917;50.942;6.946;2023-12-20T05:07:30;9.20;99.90
17597;DHT22;8917;50.942;6.946;2023-12-20T05:09:56;9.10;99.90
17597;DHT22;8917;50.942;6.946;2023-12-20T05:12:23;9.20;99.90
17597;DHT22;8917;50.942;6.946;2023-12-20T05:14:52;9.10;99.90
17597;DHT22;8917;50.942;6.946;2023-12-20T05:17:19;9.10;99.90
17597;DHT22;8917;50.942;6.946;2023-12-20T05:19:46;9.20;99.90
17597;DHT22;8917;50.942;6.946;2023-12-20T05:22:13;9.30;99.90
17597;DHT22;8917;50.942;6.946;2023-12-20T05:24:40;9.20;99.90
17597;DHT22;8917;50.942;6.946;2023-12-20T05:27:07;9.30;99.90
17597;DHT22;8917;50.942;6.946;2023-12-20T05:29:34;9.20;99.90
17597;DHT22;8917;50.942;6.946;2023-12-20T05:32:03;9.20;99.90
17597;DHT22;8917;50.942;6.946;2023-12-20T05:34:30;9.10;99.90
17597;DHT22;8917;50.942;6.946;2023-12-20T05:36:58;9.30;99.90
17597;DHT22;8917;50.942;6.946;2023-12-20T05:39:24;9.30;99.90
17597;DHT22;8917;50.942;6.946;2023-12-20T05:41:51;9.20;99.90
17597;DHT22;8917;50.942;6.946;2023-12-20T05:44:18;9.30;99.90
17597;DHT22;8917;50.942;6.946;2023-12-20T05:46:45;9.30;99.90
17597;DHT22;8917;50.942;6.946;2023-12-20T05:49:13;9.30;99.90
17597;DHT22;8917;50.942;6.946;2023-12-20T05:51:41;9.40;99.90
17597;DHT22;8917;50.942;6.946;2023-12-20T05:54:09;9.40;99.90
17597;DHT22;8917;50.942;6.946;2023-12-20T05:56:35;9.40;99.90
17597;DHT22;8917;50.942;6.946;2023-12-20T05:59:02;9.50;99.90
17597;DHT22;8917;50.942;6.946;2023-12-20T06:01:29;9.30;99.90
17597;DHT22;8917;50.942;6.946;2023-12-20T06:03:56;9.20;99.90
17597;DHT22;8917;50.942;6.946;2023-12-20T06:06:24;9.40;99.90
17597;DHT22;8917;50.942;6.946;2023-12-20T06:08:51;9.30;99.90
17597;DHT22;8917;50.942;6.946;2023-12-20T06:11:18;9.30;99.90
17597;DHT22;8917;50.942;6.946;2023-12-20T06:13:45;9.30;99.90
17597;DHT22;8917;50.942;6.946;2023-12-20T06:16:12;9.30;99.90
17597;DHT22;8917;50.942;6.946;2023-12-20T06:18:39;9.30;99.90
17597;DHT22;8917;50.942;6.946;2023-12-20T06:21:06;9.30;99.90
17597;DHT22;8917;50.942;6.946;2023-12-20T06:23:35;9.10;99.90
17597;DHT22;8917;50.942;6.946;2023-12-20T06:26:02;9.00;99.90
17597;DHT22;8917;50.942;6.946;2023-12-20T06:28:29;9.00;99.90
17597;DHT22;8917;50.942;6.946;2023-12-20T06:30:56;9.10;99.90
17597;DHT22;8917;50.942;6.946;2023-12-20T06:33:23;9.10;99.90
17597;DHT22;8917;50.942;6.946;2023-12-20T06:35:50;9.10;99.90
17597;DHT22;8917;50.942;6.946;2023-12-20T06:38:18;9.30;99.90
17597;DHT22;8917;50.942;6.946;2023-12-20T06:40:46;9.30;99.90
17597;DHT22;8917;50.942;6.946;2023-12-20T06:43:13;9.10;99.90
17597;DHT22;8917;50.942;6.946;2023-12-20T06:45:40;9.00;99.90
17597;DHT22;8917;50.942;6.946;2023-12-20T06:48:07;9.20;99.90
17597;DHT22;8917;50.942;6.946;2023-12-20T06:50:36;9.30;99.90
17597;DHT22;8917;50.942;6.946;2023-12-20T06:53:05;9.30;99.90
17597;DHT22;8917;50.942;6.946;2023-12-20T06:55:32;9.40;99.90
17597;DHT22;8917;50.942;6.946;2023-12-20T06:58:02;9.10;99.90
17597;DHT22;8917;50.942;6.946;2023-12-20T07:00:29;9.10;99.90
17597;DHT22;8917;50.942;6.946;2023-12-20T07:02:56;9.00;99.90
17597;DHT22;8917;50.942;6.946;2023-12-20T07:05:23;8.80;99.90
17597;DHT22;8917;50.942;6.946;2023-12-20T07:07:50;8.80;99.90
17597;DHT22;8917;50.942;6.946;2023-12-20T07:10:17;8.90;99.90
17597;DHT22;8917;50.942;6.946;2023-12-20T07:12:44;8.90;99.90
17597;DHT22;8917;50.942;6.946;2023-12-20T07:15:13;8.90;99.90
17597;DHT22;8917;50.942;6.946;2023-12-20T07:17:40;9.00;99.90
17597;DHT22;8917;50.942;6.946;2023-12-20T07:20:08;9.10;99.90
17597;DHT22;8917;50.942;6.946;2023-12-20T07:22:36;9.20;99.90
17597;DHT22;8917;50.942;6.946;2023-12-20T07:25:04;9.10;99.90
17597;DHT22;8917;50.942;6.946;2023-12-20T07:27:31;9.10;99.90
17597;DHT22;8917;50.942;6.946;2023-12-20T07:29:57;9.20;99.90
17597;DHT22;8917;50.942;6.946;2023-12-20T07:32:26;9.10;99.90
17597;DHT22;8917;50.942;6.946;2023-12-20T07:34:53;9.00;99.90
17597;DHT22;8917;50.942;6.946;2023-12-20T07:37:20;8.90;99.90
17597;DHT22;8917;50.942;6.946;2023-12-20T07:39:47;8.80;99.90
17597;DHT22;8917;50.942;6.946;2023-12-20T07:42:14;9.00;99.90
17597;DHT22;8917;50.942;6.946;2023-12-20T07:44:41;9.00;99.90
17597;DHT22;8917;50.942;6.946;2023-12-20T07:47:08;8.90;99.90
17597;DHT22;8917;50.942;6.946;2023-12-20T07:49:36;9.10;99.90
17597;DHT22;8917;50.942;6.946;2023-12-20T07:52:03;9.00;99.90
17597;DHT22;8917;50.942;6.946;2023-12-20T07:54:30;9.00;99.90
17597;DHT22;8917;50.942;6.946;2023-12-20T07:56:59;9.10;99.90
17597;DHT22;8917;50.942;6.946;2023-12-20T07:59:26;9.10;99.90
17597;DHT22;8917;50.942;6.946;2023-12-20T08:01:53;8.90;99.90
17597;DHT22;8917;50.942;6.946;2023-12-20T08:04:21;8.90;99.90
17597;DHT22;8917;50.942;6.946;2023-12-20T08:06:50;9.00;99.90
17597;DHT22;8917;50.942;6.946;2023-12-20T08:09:17;9.20;99.90
17597;DHT22;8917;50.942;6.946;2023-12-20T08:11:45;9.20;99.90
17597;DHT22;8917;50.942;6.946;2023-12-20T08:14:12;9.20;99.90
17597;DHT22;8917;50.942;6.946;2023-12-20T08:16:39;9.30;99.90
17597;DHT22;8917;50.942;6.946;2023-12-20T08:19:06;9.20;99.90
17597;DHT22;8917;50.942;6.946;2023-12-20T08:21:33;9.00;99.90
17597;DHT22;8917;50.942;6.946;2023-12-20T08:24:03;8.90;99.90
17597;DHT22;8917;50.942;6.946;2023-12-20T08:26:30;9.00;99.90
17597;DHT22;8917;50.942;6.946;2023-12-20T08:28:57;9.00;99.90
17597;DHT22;8917;50.942;6.946;2023-12-20T08:31:24;9.20;99.90
17597;DHT22;8917;50.942;6.946;2023-12-20T08:33:51;9.00;99.90
17597;DHT22;8917;50.942;6.946;2023-12-20T08:36:19;9.00;99.90
17597;DHT22;8917;50.942;6.946;2023-12-20T08:38:47;9.20;99.90
17597;DHT22;8917;50.942;6.946;2023-12-20T08:41:15;9.30;99.90
17597;DHT22;8917;50.942;6.946;2023-12-20T08:43:42;9.40;99.90
17597;DHT22;8917;50.942;6.946;2023-12-20T08:46:09;9.50;99.90
17597;DHT22;8917;50.942;6.946;2023-12-20T08:48:37;9.30;99.90
17597;DHT22;8917;50.942;6.946;2023-12-20T08:51:04;9.10;99.90
17597;DHT22;8917;50.942;6.946;2023-12-20T08:53:32;9.10;99.90
17597;DHT22;8917;50.942;6.946;2023-12-20T08:56:00;9.20;99.90
17597;DHT22;8917;50.942;6.946;2023-12-20T08:58:29;9.40;99.90
17597;DHT22;8917;50.942;6.946;2023-12-20T09:00:56;9.40;99.90
17597;DHT22;8917;50.942;6.946;2023-12-20T09:03:24;9.40;99.90
17597;DHT22;8917;50.942;6.946;2023-12-20T09:05:50;9.50;99.90
17597;DHT22;8917;50.942;6.946;2023-12-20T09:08:17;9.40;99.90
17597;DHT22;8917;50.942;6.946;2023-12-20T09:10:44;9.30;99.90
17597;DHT22;8917;50.942;6.946;2023-12-20T09:13:12;9.20;99.90
17597;DHT22;8917;50.942;6.946;2023-12-20T09:15:40;9.10;99.90
17597;DHT22;8917;50.942;6.946;2023-12-20T09:18:07;8.90;99.90
17597;DHT22;8917;50.942;6.946;2023-12-20T09:20:35;8.90;99.90
17597;DHT22;8917;50.942;6.946;2023-12-20T09:23:02;8.90;99.90
17597;DHT22;8917;50.942;6.946;2023-12-20T09:25:29;9.10;99.90
17597;DHT22;8917;50.942;6.946;2023-12-20T09:27:56;9.10;99.90
17597;DHT22;8917;50.942;6.946;2023-12-20T09:30:23;9.10;99.90
17597;DHT22;8917;50.942;6.946;2023-12-20T09:32:52;9.00;99.90
17597;DHT22;8917;50.942;6.946;2023-12-20T09:35:19;9.00;99.90
17597;DHT22;8917;50.942;6.946;2023-12-20T09:37:49;8.90;99.90
17597;DHT22;8917;50.942;6.946;2023-12-20T09:40:19;9.00;99.90
17597;DHT22;8917;50.942;6.946;2023-12-20T09:42:51;9.10;99.90
17597;DHT22;8917;50.942;6.946;2023-12-20T09:45:22;9.10;99.90
17597;DHT22;8917;50.942;6.946;2023-12-20T09:47:50;9.10;99.90
17597;DHT22;8917;50.942;6.946;2023-12-20T09:50:20;9.10;99.90
17597;DHT22;8917;50.942;6.946;2023-12-20T09:52:50;9.00;99.90
17597;DHT22;8917;50.942;6.946;2023-12-20T09:55:18;9.10;99.90
17597;DHT22;8917;50.942;6.946;2023-12-20T09:57:45;8.90;99.90
17597;DHT22;8917;50.942;6.946;2023-12-20T10:00:13;8.90;99.90
17597;DHT22;8917;50.942;6.946;2023-12-20T10:02:45;9.00;99.90
17597;DHT22;8917;50.942;6.946;2023-12-20T10:05:16;9.00;99.90
17597;DHT22;8917;50.942;6.946;2023-12-20T10:07:46;9.20;99.90
17597;DHT22;8917;50.942;6.946;2023-12-20T10:10:14;9.40;99.90
17597;DHT22;8917;50.942;6.946;2023-12-20T10:12:42;9.40;99.90
17597;DHT22;8917;50.942;6.946;2023-12-20T10:15:27;9.40;99.90
17597;DHT22;8917;50.942;6.946;2023-12-20T10:17:53;9.20;99.90
17597;DHT22;8917;50.942;6.946;2023-12-20T10:20:21;9.10;99.90
17597;DHT22;8917;50.942;6.946;2023-12-20T10:22:49;9.30;99.90
17597;DHT22;8917;50.942;6.946;2023-12-20T10:25:19;9.10;99.90
17597;DHT22;8917;50.942;6.946;2023-12-20T10:27:46;9.30;99.90
17597;DHT22;8917;50.942;6.946;2023-12-20T10:30:13;9.30;99.90
17597;DHT22;8917;50.942;6.946;2023-12-20T10:32:40;9.40;99.90
17597;DHT22;8917;50.942;6.946;2023-12-20T10:35:08;9.60;99.90
17597;DHT22;8917;50.942;6.946;2023-12-20T10:37:35;9.40;99.90
17597;DHT22;8917;50.942;6.946;2023-12-20T10:40:05;9.40;99.90
17597;DHT22;8917;50.942;6.946;2023-12-20T10:42:32;9.30;99.90
17597;DHT22;8917;50.942;6.946;2023-12-20T10:45:01;9.20;99.90
17597;DHT22;8917;50.942;6.946;2023-12-20T10:47:30;9.40;99.90
17597;DHT22;8917;50.942;6.946;2023-12-20T10:49:59;9.40;99.90
17597;DHT22;8917;50.942;6.946;2023-12-20T10:52:28;9.60;99.90
17597;DHT22;8917;50.942;6.946;2023-12-20T10:54:56;9.40;99.90
17597;DHT22;8917;50.942;6.946;2023-12-20T10:57:27;9.30;99.90
17597;DHT22;8917;50.942;6.946;2023-12-20T10:59:54;9.20;99.90
17597;DHT22;8917;50.942;6.946;2023-12-20T11:02:22;9.20;99.90
17597;DHT22;8917;50.942;6.946;2023-12-20T11:04:53;9.20;99.90
17597;DHT22;8917;50.942;6.946;2023-12-20T11:07:25;9.30;99.90
17597;DHT22;8917;50.942;6.946;2023-12-20T11:09:58;9.20;99.90
17597;DHT22;8917;50.942;6.946;2023-12-20T11:12:35;9.30;99.90
17597;DHT22;8917;50.942;6.946;2023-12-20T11:15:04;9.30;99.90
17597;DHT22;8917;50.942;6.946;2023-12-20T11:17:31;9.30;99.90
17597;DHT22;8917;50.942;6.946;2023-12-20T11:20:07;9.40;99.90
17597;DHT22;8917;50.942;6.946;2023-12-20T11:22:36;9.50;99.90
17597;DHT22;8917;50.942;6.946;2023-12-20T11:25:06;9.60;99.90
17597;DHT22;8917;50.942;6.946;2023-12-20T11:27:35;9.70;99.90
17597;DHT22;8917;50.942;6.946;2023-12-20T11:30:03;9.80;99.90
17597;DHT22;8917;50.942;6.946;2023-12-20T11:32:34;9.80;99.90
17597;DHT22;8917;50.942;6.946;2023-12-20T11:35:25;9.30;99.90
17597;DHT22;8917;50.942;6.946;2023-12-20T11:37:52;9.20;99.90
17597;DHT22;8917;50.942;6.946;2023-12-20T11:40:19;9.20;99.90
17597;DHT22;8917;50.942;6.946;2023-12-20T11:42:51;9.30;99.90
17597;DHT22;8917;50.942;6.946;2023-12-20T11:45:19;9.30;99.90
17597;DHT22;8917;50.942;6.946;2023-12-20T11:47:48;9.60;99.90
17597;DHT22;8917;50.942;6.946;2023-12-20T11:50:16;9.50;99.90
17597;DHT22;8917;50.942;6.946;2023-12-20T11:52:43;9.40;99.90
17597;DHT22;8917;50.942;6.946;2023-12-20T11:55:10;9.60;99.90
17597;DHT22;8917;50.942;6.946;2023-12-20T11:57:38;9.50;99.90
17597;DHT22;8917;50.942;6.946;2023-12-20T12:00:07;9.40;99.90
17597;DHT22;8917;50.942;6.946;2023-12-20T12:02:34;9.50;99.90
17597;DHT22;8917;50.942;6.946;2023-12-20T12:05:01;9.40;99.90
17597;DHT22;8917;50.942;6.946;2023-12-20T12:07:30;9.40;99.90
17597;DHT22;8917;50.942;6.946;2023-12-20T12:09:57;9.50;99.90
17597;DHT22;8917;50.942;6.946;2023-12-20T12:12:24;9.30;99.90
17597;DHT22;8917;50.942;6.946;2023-12-20T12:14:52;9.40;99.90
17597;DHT22;8917;50.942;6.946;2023-12-20T12:17:21;9.20;99.90
17597;DHT22;8917;50.942;6.946;2023-12-20T12:19:47;9.40;99.90
17597;DHT22;8917;50.942;6.946;2023-12-20T12:22:15;9.50;99.90
17597;DHT22;8917;50.942;6.946;2023-12-20T12:24:44;9.40;99.90
17597;DHT22;8917;50.942;6.946;2023-12-20T12:27:12;9.30;99.90
17597;DHT22;8917;50.942;6.946;2023-12-20T12:29:40;9.30;99.90
17597;DHT22;8917;50.942;6.946;2023-12-20T12:32:08;9.20;99.90
17597;DHT22;8917;50.942;6.946;2023-12-20T12:34:36;9.10;99.90
17597;DHT22;8917;50.942;6.946;2023-12-20T12:37:04;9.30;99.90
17597;DHT22;8917;50.942;6.946;2023-12-20T12:39:31;9.50;99.90
17597;DHT22;8917;50.942;6.946;2023-12-20T12:41:58;9.60;99.90
17597;DHT22;8917;50.942;6.946;2023-12-20T12:44:24;9.60;99.90
17597;DHT22;8917;50.942;6.946;2023-12-20T12:46:52;9.50;99.90
17597;DHT22;8917;50.942;6.946;2023-12-20T12:49:20;9.40;99.90
17597;DHT22;8917;50.942;6.946;2023-12-20T12:51:49;9.60;99.90
17597;DHT22;8917;50.942;6.946;2023-12-20T12:54:15;9.40;99.90
17597;DHT22;8917;50.942;6.946;2023-12-20T12:56:44;9.60;99.90
17597;DHT22;8917;50.942;6.946;2023-12-20T12:59:12;9.60;99.90
17597;DHT22;8917;50.942;6.946;2023-12-20T13:01:39;9.60;99.90
17597;DHT22;8917;50.942;6.946;2023-12-20T13:04:06;9.80;99.90
17597;DHT22;8917;50.942;6.946;2023-12-20T13:06:36;9.80;99.90
17597;DHT22;8917;50.942;6.946;2023-12-20T13:09:05;9.70;99.90
17597;DHT22;8917;50.942;6.946;2023-12-20T13:11:32;9.60;99.90
17597;DHT22;8917;50.942;6.946;2023-12-20T13:13:59;9.40;99.90
17597;DHT22;8917;50.942;6.946;2023-12-20T13:16:26;9.30;99.90
17597;DHT22;8917;50.942;6.946;2023-12-20T13:18:53;9.30;99.90
17597;DHT22;8917;50.942;6.946;2023-12-20T13:21:20;9.40;99.90
17597;DHT22;8917;50.942;6.946;2023-12-20T13:23:46;9.60;99.90
17597;DHT22;8917;50.942;6.946;2023-12-20T13:26:15;9.60;99.90
17597;DHT22;8917;50.942;6.946;2023-12-20T13:28:43;9.60;99.90
17597;DHT22;8917;50.942;6.946;2023-12-20T13:31:09;9.70;99.90
17597;DHT22;8917;50.942;6.946;2023-12-20T13:33:39;9.80;99.90
17597;DHT22;8917;50.942;6.946;2023-12-20T13:36:06;9.80;99.90
17597;DHT22;8917;50.942;6.946;2023-12-20T13:38:34;9.70;99.90
17597;DHT22;8917;50.942;6.946;2023-12-20T13:41:01;9.80;99.90
17597;DHT22;8917;50.942;6.946;2023-12-20T13:43:29;9.80;99.90
17597;DHT22;8917;50.942;6.946;2023-12-20T13:45:56;9.70;99.90
17597;DHT22;8917;50.942;6.946;2023-12-20T13:48:23;9.50;99.90
17597;DHT22;8917;50.942;6.946;2023-12-20T13:50:49;9.50;99.90
17597;DHT22;8917;50.942;6.946;2023-12-20T13:53:16;9.60;99.90
17597;DHT22;8917;50.942;6.946;2023-12-20T13:55:44;9.30;99.90
17597;DHT22;8917;50.942;6.946;2023-12-20T13:58:12;9.30;99.90
17597;DHT22;8917;50.942;6.946;2023-12-20T14:00:40;9.30;99.90
17597;DHT22;8917;50.942;6.946;2023-12-20T14:03:07;9.50;99.90
17597;DHT22;8917;50.942;6.946;2023-12-20T14:05:35;9.60;99.90
17597;DHT22;8917;50.942;6.946;2023-12-20T14:08:03;9.70;99.90
17597;DHT22;8917;50.942;6.946;2023-12-20T14:10:30;9.50;99.90
17597;DHT22;8917;50.942;6.946;2023-12-20T14:12:56;9.50;99.90
17597;DHT22;8917;50.942;6.946;2023-12-20T14:15:23;9.50;99.90
17597;DHT22;8917;50.942;6.946;2023-12-20T14:17:52;9.50;99.90
17597;DHT22;8917;50.942;6.946;2023-12-20T14:20:20;9.50;99.90
17597;DHT22;8917;50.942;6.946;2023-12-20T14:22:47;9.60;99.90
17597;DHT22;8917;50.942;6.946;2023-12-20T14:25:14;9.50;99.90
17597;DHT22;8917;50.942;6.946;2023-12-20T14:27:42;9.50;99.90
17597;DHT22;8917;50.942;6.946;2023-12-20T14:30:10;9.50;99.90
17597;DHT22;8917;50.942;6.946;2023-12-20T14:32:39;9.50;99.90
17597;DHT22;8917;50.942;6.946;2023-12-20T14:35:08;9.60;99.90
17597;DHT22;8917;50.942;6.946;2023-12-20T14:37:35;9.40;99.90
17597;DHT22;8917;50.942;6.946;2023-12-20T14:40:05;9.60;99.90
17597;DHT22;8917;50.942;6.946;2023-12-20T14:42:35;9.50;99.90
17597;DHT22;8917;50.942;6.946;2023-12-20T14:45:03;9.50;99.90
17597;DHT22;8917;50.942;6.946;2023-12-20T14:47:30;9.60;99.90
17597;DHT22;8917;50.942;6.946;2023-12-20T14:49:57;9.70;99.90
17597;DHT22;8917;50.942;6.946;2023-12-20T14:52:25;9.80;99.90
17597;DHT22;8917;50.942;6.946;2023-12-20T14:54:52;9.80;99.90
17597;DHT22;8917;50.942;6.946;2023-12-20T14:57:19;9.70;99.90
17597;DHT22;8917;50.942;6.946;2023-12-20T14:59:46;9.80;99.90
17597;DHT22;8917;50.942;6.946;2023-12-20T15:02:12;9.80;99.90
17597;DHT22;8917;50.942;6.946;2023-12-20T15:04:40;9.80;99.90
17597;DHT22;8917;50.942;6.946;2023-12-20T15:07:07;9.80;99.90
17597;DHT22;8917;50.942;6.946;2023-12-20T15:09:36;9.70;99.90
17597;DHT22;8917;50.942;6.946;2023-12-20T15:12:04;9.80;99.90
17597;DHT22;8917;50.942;6.946;2023-12-20T15:14:31;9.90;99.90
17597;DHT22;8917;50.942;6.946;2023-12-20T15:16:58;9.70;99.90
17597;DHT22;8917;50.942;6.946;2023-12-20T15:19:24;9.60;99.90
17597;DHT22;8917;50.942;6.946;2023-12-20T15:21:51;9.70;99.90
17597;DHT22;8917;50.942;6.946;2023-12-20T15:24:18;9.60;99.90
17597;DHT22;8917;50.942;6.946;2023-12-20T15:26:54;9.60;99.90
17597;DHT22;8917;50.942;6.946;2023-12-20T15:29:21;9.50;99.90
17597;DHT22;8917;50.942;6.946;2023-12-20T15:31:48;9.50;99.90
17597;DHT22;8917;50.942;6.946;2023-12-20T15:34:15;9.60;99.90
17597;DHT22;8917;50.942;6.946;2023-12-20T15:36:43;9.70;99.90
17597;DHT22;8917;50.942;6.946;2023-12-20T15:39:10;9.70;99.90
17597;DHT22;8917;50.942;6.946;2023-12-20T15:41:40;9.60;99.90
17597;DHT22;8917;50.942;6.946;2023-12-20T15:44:08;9.50;99.90
17597;DHT22;8917;50.942;6.946;2023-12-20T15:46:35;9.50;99.90
17597;DHT22;8917;50.942;6.946;2023-12-20T15:49:02;9.50;99.90
17597;DHT22;8917;50.942;6.946;2023-12-20T15:51:29;9.50;99.90
17597;DHT22;8917;50.942;6.946;2023-12-20T15:53:56;9.50;99.90
17597;DHT22;8917;50.942;6.946;2023-12-20T15:56:23;9.40;99.90
17597;DHT22;8917;50.942;6.946;2023-12-20T15:58:50;9.50;99.90
17597;DHT22;8917;50.942;6.946;2023-12-20T16:01:21;9.40;99.90